sensor_id;sensor_type;location;lat;lon;timestamp;pressure;altitude;pressure_sealevel;temperature;humidity
79131;BME280;72396;45.194;9.142;2024-03-06T00:01:57;100314.47;;;11.29;65.67
79131;BME280;72396;45.194;9.142;2024-03-06T00:04:22;100306.31;;;11.33;65.82
79131;BME280;72396;45.194;9.142;2024-03-06T00:06:48;100309.88;;;11.32;65.15
79131;BME280;72396;45.194;9.142;2024-03-06T00:09:13;100334.72;;;11.49;65.40
79131;BME280;72396;45.194;9.142;2024-03-06T00:11:39;100333.72;;;11.51;64.93
79131;BME280;72396;45.194;9.142;2024-03-06T00:14:05;100335.16;;;11.59;65.11
79131;BME280;72396;45.194;9.142;2024-03-06T00:16:33;100318.28;;;11.42;65.00
79131;BME280;72396;45.194;9.142;2024-03-06T00:18:59;100327.66;;;11.49;64.82
79131;BME280;72396;45.194;9.142;2024-03-06T00:21:24;100315.63;;;11.42;64.66
79131;BME280;72396;45.194;9.142;2024-03-06T00:23:50;100325.50;;;11.39;65.46
79131;BME280;72396;45.194;9.142;2024-03-06T00:26:15;100334.25;;;11.39;65.41
79131;BME280;72396;45.194;9.142;2024-03-06T00:28:41;100337.75;;;11.40;64.93
79131;BME280;72396;45.194;9.142;2024-03-06T00:31:06;100330.78;;;11.39;65.36
79131;BME280;72396;45.194;9.142;2024-03-06T00:33:31;100341.94;;;11.45;65.06
79131;BME280;72396;45.194;9.142;2024-03-06T00:35:57;100344.63;;;11.44;65.50
79131;BME280;72396;45.194;9.142;2024-03-06T00:38:22;100343.63;;;11.46;65.36
79131;BME280;72396;45.194;9.142;2024-03-06T00:40:48;100320.06;;;11.42;64.75
79131;BME280;72396;45.194;9.142;2024-03-06T00:43:13;100310.56;;;11.37;64.42
79131;BME280;72396;45.194;9.142;2024-03-06T00:45:39;100330.53;;;11.43;64.72
79131;BME280;72396;45.194;9.142;2024-03-06T00:48:04;100327.44;;;11.33;65.38
79131;BME280;72396;45.194;9.142;2024-03-06T00:50:30;100317.28;;;11.24;65.49
79131;BME280;72396;45.194;9.142;2024-03-06T00:52:55;100320.06;;;11.21;65.53
79131;BME280;72396;45.194;9.142;2024-03-06T00:55:21;100315.25;;;11.31;65.55
79131;BME280;72396;45.194;9.142;2024-03-06T00:57:46;100313.41;;;11.33;65.45
79131;BME280;72396;45.194;9.142;2024-03-06T01:00:12;100307.53;;;11.26;65.16
79131;BME280;72396;45.194;9.142;2024-03-06T01:02:37;100282.75;;;11.08;65.31
79131;BME280;72396;45.194;9.142;2024-03-06T01:05:03;100315.63;;;11.21;64.90
79131;BME280;72396;45.194;9.142;2024-03-06T01:07:29;100321.88;;;11.19;65.62
79131;BME280;72396;45.194;9.142;2024-03-06T01:09:55;100318.09;;;11.26;65.31
79131;BME280;72396;45.194;9.142;2024-03-06T01:12:23;100323.97;;;11.33;65.39
79131;BME280;72396;45.194;9.142;2024-03-06T01:14:48;100317.09;;;11.29;65.14
79131;BME280;72396;45.194;9.142;2024-03-06T01:17:13;100332.63;;;11.36;65.26
79131;BME280;72396;45.194;9.142;2024-03-06T01:19:39;100321.66;;;11.25;65.63
79131;BME280;72396;45.194;9.142;2024-03-06T01:22:04;100325.34;;;11.21;65.36
79131;BME280;72396;45.194;9.142;2024-03-06T01:24:29;100276.97;;;11.00;65.57
79131;BME280;72396;45.194;9.142;2024-03-06T01:26:55;100300.84;;;11.17;65.70
79131;BME280;72396;45.194;9.142;2024-03-06T01:29:20;100316.09;;;11.11;66.11
79131;BME280;72396;45.194;9.142;2024-03-06T01:31:45;100305.34;;;11.15;66.07
79131;BME280;72396;45.194;9.142;2024-03-06T01:34:12;100309.56;;;11.19;65.42
79131;BME280;72396;45.194;9.142;2024-03-06T01:36:37;100318.00;;;11.07;64.44
79131;BME280;72396;45.194;9.142;2024-03-06T01:39:02;100307.97;;;10.94;64.72
79131;BME280;72396;45.194;9.142;2024-03-06T01:41:28;100321.41;;;11.09;63.69
79131;BME280;72396;45.194;9.142;2024-03-06T01:43:53;100309.72;;;10.94;63.68
79131;BME280;72396;45.194;9.142;2024-03-06T01:46:19;100308.03;;;10.93;63.72
79131;BME280;72396;45.194;9.142;2024-03-06T01:48:44;100313.78;;;11.03;63.41
79131;BME280;72396;45.194;9.142;2024-03-06T01:51:11;100309.69;;;10.96;63.59
79131;BME280;72396;45.194;9.142;2024-03-06T01:53:37;100307.97;;;10.94;63.42
79131;BME280;72396;45.194;9.142;2024-03-06T01:56:04;100306.13;;;10.97;63.55
79131;BME280;72396;45.194;9.142;2024-03-06T01:58:29;100305.34;;;10.94;63.50
79131;BME280;72396;45.194;9.142;2024-03-06T02:00:56;100314.09;;;10.95;63.55
79131;BME280;72396;45.194;9.142;2024-03-06T02:03:22;100314.59;;;10.83;63.05
79131;BME280;72396;45.194;9.142;2024-03-06T02:05:52;100306.88;;;10.78;63.47
79131;BME280;72396;45.194;9.142;2024-03-06T02:08:18;100322.50;;;10.83;64.02
79131;BME280;72396;45.194;9.142;2024-03-06T02:10:44;100317.16;;;10.84;63.20
79131;BME280;72396;45.194;9.142;2024-03-06T02:13:10;100308.59;;;10.79;63.74
79131;BME280;72396;45.194;9.142;2024-03-06T02:15:35;100312.09;;;11.00;63.28
79131;BME280;72396;45.194;9.142;2024-03-06T02:18:05;100304.66;;;10.89;63.38
79131;BME280;72396;45.194;9.142;2024-03-06T02:20:30;100307.16;;;10.92;63.35
79131;BME280;72396;45.194;9.142;2024-03-06T02:22:55;100297.84;;;10.84;63.34
79131;BME280;72396;45.194;9.142;2024-03-06T02:25:21;100303.25;;;10.80;63.38
79131;BME280;72396;45.194;9.142;2024-03-06T02:27:46;100297.78;;;10.85;63.79
79131;BME280;72396;45.194;9.142;2024-03-06T02:30:13;100288.22;;;10.83;63.00
79131;BME280;72396;45.194;9.142;2024-03-06T02:32:39;100286.56;;;10.80;62.83
79131;BME280;72396;45.194;9.142;2024-03-06T02:35:04;100288.72;;;10.70;63.74
79131;BME280;72396;45.194;9.142;2024-03-06T02:37:33;100280.88;;;10.69;63.47
79131;BME280;72396;45.194;9.142;2024-03-06T02:39:59;100293.63;;;10.79;63.99
79131;BME280;72396;45.194;9.142;2024-03-06T02:42:27;100295.63;;;10.73;63.28
79131;BME280;72396;45.194;9.142;2024-03-06T02:44:52;100283.56;;;10.67;63.16
79131;BME280;72396;45.194;9.142;2024-03-06T02:47:18;100282.59;;;10.70;63.45
79131;BME280;72396;45.194;9.142;2024-03-06T02:49:44;100296.50;;;10.73;63.60
79131;BME280;72396;45.194;9.142;2024-03-06T02:52:10;100283.56;;;10.67;63.90
79131;BME280;72396;45.194;9.142;2024-03-06T02:54:35;100293.34;;;10.86;63.37
79131;BME280;72396;45.194;9.142;2024-03-06T02:57:01;100292.34;;;10.68;63.29
79131;BME280;72396;45.194;9.142;2024-03-06T02:59:26;100295.59;;;10.74;64.11
79131;BME280;72396;45.194;9.142;2024-03-06T03:01:52;100299.06;;;10.75;63.50
79131;BME280;72396;45.194;9.142;2024-03-06T03:04:18;100307.13;;;10.72;63.13
79131;BME280;72396;45.194;9.142;2024-03-06T03:06:43;100308.59;;;10.79;63.46
79131;BME280;72396;45.194;9.142;2024-03-06T03:09:09;100311.34;;;10.76;63.27
79131;BME280;72396;45.194;9.142;2024-03-06T03:11:37;100323.59;;;10.77;63.31
79131;BME280;72396;45.194;9.142;2024-03-06T03:14:03;100322.56;;;10.81;63.26
79131;BME280;72396;45.194;9.142;2024-03-06T03:16:28;100322.09;;;10.71;63.15
79131;BME280;72396;45.194;9.142;2024-03-06T03:18:55;100320.25;;;10.73;63.54
79131;BME280;72396;45.194;9.142;2024-03-06T03:21:20;100321.47;;;10.64;63.05
79131;BME280;72396;45.194;9.142;2024-03-06T03:23:46;100317.03;;;10.65;63.47
79131;BME280;72396;45.194;9.142;2024-03-06T03:26:12;100320.31;;;10.72;63.57
79131;BME280;72396;45.194;9.142;2024-03-06T03:28:38;100310.50;;;10.75;63.04
79131;BME280;72396;45.194;9.142;2024-03-06T03:31:07;100322.94;;;10.72;63.52
79131;BME280;72396;45.194;9.142;2024-03-06T03:33:34;100303.69;;;10.70;63.12
79131;BME280;72396;45.194;9.142;2024-03-06T03:36:04;100314.97;;;10.73;63.30
79131;BME280;72396;45.194;9.142;2024-03-06T03:38:29;100305.09;;;10.78;63.51
79131;BME280;72396;45.194;9.142;2024-03-06T03:40:55;100312.88;;;10.82;63.44
79131;BME280;72396;45.194;9.142;2024-03-06T03:43:20;100306.28;;;10.71;63.34
79131;BME280;72396;45.194;9.142;2024-03-06T03:45:46;100309.69;;;10.73;63.31
79131;BME280;72396;45.194;9.142;2024-03-06T03:48:11;100318.59;;;10.71;63.65
79131;BME280;72396;45.194;9.142;2024-03-06T03:50:37;100327.16;;;10.76;63.65
79131;BME280;72396;45.194;9.142;2024-03-06T03:53:03;100322.19;;;10.68;63.39
79131;BME280;72396;45.194;9.142;2024-03-06T03:55:29;100318.63;;;10.69;63.68
79131;BME280;72396;45.194;9.142;2024-03-06T03:57:54;100318.75;;;10.66;63.49
79131;BME280;72396;45.194;9.142;2024-03-06T04:00:20;100318.63;;;10.69;63.75
79131;BME280;72396;45.194;9.142;2024-03-06T04:02:45;100316.69;;;10.74;63.69
79131;BME280;72396;45.194;9.142;2024-03-06T04:05:11;100307.72;;;10.78;63.72
79131;BME280;72396;45.194;9.142;2024-03-06T04:07:37;100303.63;;;10.71;63.83
79131;BME280;72396;45.194;9.142;2024-03-06T04:10:03;100302.44;;;10.78;64.05
79131;BME280;72396;45.194;9.142;2024-03-06T04:12:28;100290.69;;;10.65;63.80
79131;BME280;72396;45.194;9.142;2024-03-06T04:14:54;100294.66;;;10.53;64.23
79131;BME280;72396;45.194;9.142;2024-03-06T04:17:19;100294.19;;;10.65;64.57
79131;BME280;72396;45.194;9.142;2024-03-06T04:19:44;100297.66;;;10.66;64.40
79131;BME280;72396;45.194;9.142;2024-03-06T04:22:10;100300.31;;;10.66;64.69
79131;BME280;72396;45.194;9.142;2024-03-06T04:24:35;100294.09;;;10.67;64.25
79131;BME280;72396;45.194;9.142;2024-03-06T04:27:01;100294.53;;;10.56;64.99
79131;BME280;72396;45.194;9.142;2024-03-06T04:29:26;100294.91;;;10.69;65.00
79131;BME280;72396;45.194;9.142;2024-03-06T04:31:51;100288.34;;;10.57;64.94
79131;BME280;72396;45.194;9.142;2024-03-06T04:34:17;100298.66;;;10.63;65.19
79131;BME280;72396;45.194;9.142;2024-03-06T04:36:42;100312.94;;;10.58;64.95
79131;BME280;72396;45.194;9.142;2024-03-06T04:39:07;100311.59;;;10.70;64.92
79131;BME280;72396;45.194;9.142;2024-03-06T04:41:33;100309.84;;;10.70;65.38
79131;BME280;72396;45.194;9.142;2024-03-06T04:43:59;100299.78;;;10.58;64.76
79131;BME280;72396;45.194;9.142;2024-03-06T04:46:26;100334.97;;;10.79;65.26
79131;BME280;72396;45.194;9.142;2024-03-06T04:48:53;100341.69;;;10.64;64.99
79131;BME280;72396;45.194;9.142;2024-03-06T04:51:18;100342.06;;;10.77;65.53
79131;BME280;72396;45.194;9.142;2024-03-06T04:53:47;100337.09;;;10.69;65.41
79131;BME280;72396;45.194;9.142;2024-03-06T04:56:13;100338.72;;;10.73;65.34
79131;BME280;72396;45.194;9.142;2024-03-06T04:58:40;100345.84;;;10.71;65.25
79131;BME280;72396;45.194;9.142;2024-03-06T05:01:05;100347.66;;;10.69;65.72
79131;BME280;72396;45.194;9.142;2024-03-06T05:03:30;100347.47;;;10.74;65.54
79131;BME280;72396;45.194;9.142;2024-03-06T05:05:56;100361.41;;;10.77;65.43
79131;BME280;72396;45.194;9.142;2024-03-06T05:08:21;100371.28;;;10.72;65.18
79131;BME280;72396;45.194;9.142;2024-03-06T05:10:46;100375.50;;;10.76;65.55
79131;BME280;72396;45.194;9.142;2024-03-06T05:13:12;100376.56;;;10.72;65.45
79131;BME280;72396;45.194;9.142;2024-03-06T05:15:37;100377.53;;;10.70;65.46
79131;BME280;72396;45.194;9.142;2024-03-06T05:18:04;100379.41;;;10.66;65.41
79131;BME280;72396;45.194;9.142;2024-03-06T05:20:30;100381.03;;;10.70;65.78
79131;BME280;72396;45.194;9.142;2024-03-06T05:22:56;100379.03;;;10.53;65.77
79131;BME280;72396;45.194;9.142;2024-03-06T05:25:22;100388.19;;;10.66;65.64
79131;BME280;72396;45.194;9.142;2024-03-06T05:27:47;100375.75;;;10.70;65.76
79131;BME280;72396;45.194;9.142;2024-03-06T05:30:12;100386.59;;;10.85;65.75
79131;BME280;72396;45.194;9.142;2024-03-06T05:32:38;100386.00;;;10.78;65.70
79131;BME280;72396;45.194;9.142;2024-03-06T05:35:03;100375.56;;;10.75;65.60
79131;BME280;72396;45.194;9.142;2024-03-06T05:37:29;100382.38;;;10.80;65.37
79131;BME280;72396;45.194;9.142;2024-03-06T05:39:54;100387.41;;;10.64;65.92
79131;BME280;72396;45.194;9.142;2024-03-06T05:42:20;100394.09;;;10.73;65.74
79131;BME280;72396;45.194;9.142;2024-03-06T05:44:46;100398.94;;;10.84;65.89
79131;BME280;72396;45.194;9.142;2024-03-06T05:47:13;100408.13;;;10.74;66.23
79131;BME280;72396;45.194;9.142;2024-03-06T05:49:39;100406.59;;;10.68;66.02
79131;BME280;72396;45.194;9.142;2024-03-06T05:52:04;100410.47;;;10.82;66.36
79131;BME280;72396;45.194;9.142;2024-03-06T05:54:29;100408.72;;;10.82;66.33
79131;BME280;72396;45.194;9.142;2024-03-06T05:56:58;100413.09;;;10.82;65.99
79131;BME280;72396;45.194;9.142;2024-03-06T05:59:24;100408.72;;;10.82;66.08
79131;BME280;72396;45.194;9.142;2024-03-06T06:01:49;100423.59;;;10.83;66.33
79131;BME280;72396;45.194;9.142;2024-03-06T06:04:15;100417.28;;;10.87;66.07
79131;BME280;72396;45.194;9.142;2024-03-06T06:06:41;100423.59;;;10.83;66.07
79131;BME280;72396;45.194;9.142;2024-03-06T06:09:06;100425.44;;;10.81;66.33
79131;BME280;72396;45.194;9.142;2024-03-06T06:11:32;100434.84;;;10.88;66.21
79131;BME280;72396;45.194;9.142;2024-03-06T06:14:01;100434.34;;;10.78;66.16
79131;BME280;72396;45.194;9.142;2024-03-06T06:16:26;100454.38;;;10.83;66.34
79131;BME280;72396;45.194;9.142;2024-03-06T06:18:52;100448.31;;;10.80;66.13
79131;BME280;72396;45.194;9.142;2024-03-06T06:21:17;100455.44;;;10.78;66.43
79131;BME280;72396;45.194;9.142;2024-03-06T06:23:43;100459.56;;;11.08;65.98
79131;BME280;72396;45.194;9.142;2024-03-06T06:26:09;100470.25;;;11.05;66.38
79131;BME280;72396;45.194;9.142;2024-03-06T06:28:36;100456.72;;;10.90;65.64
79131;BME280;72396;45.194;9.142;2024-03-06T06:31:03;100464.91;;;10.84;65.90
79131;BME280;72396;45.194;9.142;2024-03-06T06:33:29;100485.16;;;11.06;65.89
79131;BME280;72396;45.194;9.142;2024-03-06T06:35:54;100485.59;;;10.95;66.15
79131;BME280;72396;45.194;9.142;2024-03-06T06:38:20;100483.75;;;10.97;66.29
79131;BME280;72396;45.194;9.142;2024-03-06T06:40:45;100481.22;;;10.94;66.32
79131;BME280;72396;45.194;9.142;2024-03-06T06:43:10;100482.94;;;10.95;66.22
79131;BME280;72396;45.194;9.142;2024-03-06T06:45:36;100473.34;;;10.92;66.17
79131;BME280;72396;45.194;9.142;2024-03-06T06:48:03;100480.19;;;10.98;66.26
79131;BME280;72396;45.194;9.142;2024-03-06T06:50:28;100483.69;;;10.99;66.24
79131;BME280;72396;45.194;9.142;2024-03-06T06:52:54;100494.19;;;11.00;65.79
79131;BME280;72396;45.194;9.142;2024-03-06T06:55:19;100482.81;;;10.98;65.71
79131;BME280;72396;45.194;9.142;2024-03-06T06:57:48;100507.50;;;10.97;66.06
79131;BME280;72396;45.194;9.142;2024-03-06T07:00:14;100512.78;;;10.97;66.27
79131;BME280;72396;45.194;9.142;2024-03-06T07:02:42;100494.75;;;10.85;66.11
79131;BME280;72396;45.194;9.142;2024-03-06T07:05:08;100505.09;;;10.91;66.62
79131;BME280;72396;45.194;9.142;2024-03-06T07:07:34;100507.38;;;11.00;66.18
79131;BME280;72396;45.194;9.142;2024-03-06T07:10:00;100508.16;;;11.02;65.78
79131;BME280;72396;45.194;9.142;2024-03-06T07:12:26;100510.59;;;11.08;65.22
79131;BME280;72396;45.194;9.142;2024-03-06T07:14:51;100507.28;;;11.03;65.32
79131;BME280;72396;45.194;9.142;2024-03-06T07:17:16;100514.06;;;11.09;65.54
79131;BME280;72396;45.194;9.142;2024-03-06T07:19:42;100515.56;;;10.92;64.92
79131;BME280;72396;45.194;9.142;2024-03-06T07:22:07;100513.63;;;10.98;64.93
79131;BME280;72396;45.194;9.142;2024-03-06T07:24:32;100523.03;;;11.05;64.60
79131;BME280;72396;45.194;9.142;2024-03-06T07:26:58;100520.34;;;11.06;65.04
79131;BME280;72396;45.194;9.142;2024-03-06T07:29:23;100517.84;;;11.03;64.73
79131;BME280;72396;45.194;9.142;2024-03-06T07:31:48;100530.22;;;11.23;64.08
79131;BME280;72396;45.194;9.142;2024-03-06T07:34:14;100526.03;;;11.18;64.67
79131;BME280;72396;45.194;9.142;2024-03-06T07:36:43;100518.09;;;11.19;64.65
79131;BME280;72396;45.194;9.142;2024-03-06T07:39:08;100524.22;;;11.20;64.45
79131;BME280;72396;45.194;9.142;2024-03-06T07:41:33;100527.53;;;11.25;64.28
79131;BME280;72396;45.194;9.142;2024-03-06T07:43:59;100525.88;;;11.22;64.10
79131;BME280;72396;45.194;9.142;2024-03-06T07:46:25;100540.66;;;11.27;64.52
79131;BME280;72396;45.194;9.142;2024-03-06T07:48:51;100537.84;;;11.31;63.95
79131;BME280;72396;45.194;9.142;2024-03-06T07:51:17;100553.66;;;11.33;63.77
79131;BME280;72396;45.194;9.142;2024-03-06T07:53:42;100556.47;;;11.28;63.77
79131;BME280;72396;45.194;9.142;2024-03-06T07:56:10;100555.66;;;11.26;64.07
79131;BME280;72396;45.194;9.142;2024-03-06T07:58:36;100553.66;;;11.33;63.34
79131;BME280;72396;45.194;9.142;2024-03-06T08:01:02;100561.38;;;11.37;63.49
79131;BME280;72396;45.194;9.142;2024-03-06T08:03:28;100563.19;;;11.35;63.48
79131;BME280;72396;45.194;9.142;2024-03-06T08:05:53;100563.09;;;11.39;62.85
79131;BME280;72396;45.194;9.142;2024-03-06T08:08:19;100558.59;;;11.18;62.72
79131;BME280;72396;45.194;9.142;2024-03-06T08:10:45;100564.72;;;11.19;62.93
79131;BME280;72396;45.194;9.142;2024-03-06T08:13:10;100577.06;;;11.18;63.63
79131;BME280;72396;45.194;9.142;2024-03-06T08:15:36;100583.94;;;11.22;64.17
79131;BME280;72396;45.194;9.142;2024-03-06T08:18:04;100571.13;;;11.13;63.41
79131;BME280;72396;45.194;9.142;2024-03-06T08:20:29;100579.75;;;11.17;64.55
79131;BME280;72396;45.194;9.142;2024-03-06T08:22:56;100578.53;;;11.26;64.26
79131;BME280;72396;45.194;9.142;2024-03-06T08:25:21;100589.19;;;11.24;64.45
79131;BME280;72396;45.194;9.142;2024-03-06T08:27:47;100588.75;;;11.35;63.46
79131;BME280;72396;45.194;9.142;2024-03-06T08:30:12;100597.22;;;11.21;63.76
79131;BME280;72396;45.194;9.142;2024-03-06T08:32:38;100606.50;;;11.31;64.50
79131;BME280;72396;45.194;9.142;2024-03-06T08:35:05;100599.94;;;11.42;63.49
79131;BME280;72396;45.194;9.142;2024-03-06T08:37:32;100600.59;;;11.25;63.66
79131;BME280;72396;45.194;9.142;2024-03-06T08:39:59;100609.28;;;11.27;63.95
79131;BME280;72396;45.194;9.142;2024-03-06T08:42:24;100605.00;;;11.24;64.02
79131;BME280;72396;45.194;9.142;2024-03-06T08:44:50;100615.03;;;11.38;64.24
79131;BME280;72396;45.194;9.142;2024-03-06T08:47:15;100606.19;;;11.39;63.90
79131;BME280;72396;45.194;9.142;2024-03-06T08:49:41;100614.56;;;11.50;63.70
79131;BME280;72396;45.194;9.142;2024-03-06T08:52:06;100616.91;;;11.58;63.78
79131;BME280;72396;45.194;9.142;2024-03-06T08:54:32;100602.50;;;11.43;63.66
79131;BME280;72396;45.194;9.142;2024-03-06T08:56:57;100614.91;;;11.41;64.08
79131;BME280;72396;45.194;9.142;2024-03-06T08:59:24;100617.03;;;11.55;63.65
79131;BME280;72396;45.194;9.142;2024-03-06T09:01:54;100622.38;;;11.54;63.37
79131;BME280;72396;45.194;9.142;2024-03-06T09:04:20;100629.69;;;11.69;63.12
79131;BME280;72396;45.194;9.142;2024-03-06T09:06:45;100629.75;;;11.68;63.32
79131;BME280;72396;45.194;9.142;2024-03-06T09:09:10;100634.56;;;11.80;63.46
79131;BME280;72396;45.194;9.142;2024-03-06T09:11:36;100627.69;;;11.76;63.48
79131;BME280;72396;45.194;9.142;2024-03-06T09:14:01;100626.09;;;11.72;63.02
79131;BME280;72396;45.194;9.142;2024-03-06T09:16:26;100636.16;;;11.84;64.12
79131;BME280;72396;45.194;9.142;2024-03-06T09:18:52;100637.38;;;11.98;64.05
79131;BME280;72396;45.194;9.142;2024-03-06T09:21:18;100637.63;;;11.91;64.19
79131;BME280;72396;45.194;9.142;2024-03-06T09:23:45;100635.13;;;11.88;63.98
79131;BME280;72396;45.194;9.142;2024-03-06T09:26:10;100645.75;;;11.87;64.28
79131;BME280;72396;45.194;9.142;2024-03-06T09:28:35;100651.38;;;12.01;63.83
79131;BME280;72396;45.194;9.142;2024-03-06T09:31:01;100654.97;;;11.99;63.89
79131;BME280;72396;45.194;9.142;2024-03-06T09:33:26;100658.13;;;12.08;64.23
79131;BME280;72396;45.194;9.142;2024-03-06T09:35:52;100661.91;;;12.03;63.82
79131;BME280;72396;45.194;9.142;2024-03-06T09:38:17;100664.28;;;12.09;63.72
79131;BME280;72396;45.194;9.142;2024-03-06T09:40:42;100669.75;;;12.04;63.96
79131;BME280;72396;45.194;9.142;2024-03-06T09:43:08;100661.97;;;12.00;64.08
79131;BME280;72396;45.194;9.142;2024-03-06T09:45:34;100672.78;;;11.93;64.45
79131;BME280;72396;45.194;9.142;2024-03-06T09:48:00;100682.31;;;11.98;64.38
79131;BME280;72396;45.194;9.142;2024-03-06T09:50:27;100683.53;;;12.13;64.19
79131;BME280;72396;45.194;9.142;2024-03-06T09:52:55;100677.75;;;12.03;63.85
79131;BME280;72396;45.194;9.142;2024-03-06T09:55:21;100688.88;;;12.11;63.37
79131;BME280;72396;45.194;9.142;2024-03-06T09:57:47;100686.56;;;12.02;63.67
79131;BME280;72396;45.194;9.142;2024-03-06T10:00:13;100687.00;;;12.13;63.85
79131;BME280;72396;45.194;9.142;2024-03-06T10:02:50;100688.72;;;12.14;63.90
79131;BME280;72396;45.194;9.142;2024-03-06T10:05:23;100691.16;;;12.20;64.04
79131;BME280;72396;45.194;9.142;2024-03-06T10:07:50;100686.66;;;12.22;64.06
79131;BME280;72396;45.194;9.142;2024-03-06T10:10:16;100690.88;;;12.27;63.44
79131;BME280;72396;45.194;9.142;2024-03-06T10:12:42;100688.19;;;12.28;63.93
79131;BME280;72396;45.194;9.142;2024-03-06T10:15:10;100683.75;;;12.29;63.55
79131;BME280;72396;45.194;9.142;2024-03-06T10:17:37;100686.56;;;12.24;64.11
79131;BME280;72396;45.194;9.142;2024-03-06T10:20:17;100679.44;;;12.26;63.95
79131;BME280;72396;45.194;9.142;2024-03-06T10:22:46;100676.88;;;12.25;63.83
79131;BME280;72396;45.194;9.142;2024-03-06T10:25:12;100685.94;;;12.40;64.07
79131;BME280;72396;45.194;9.142;2024-03-06T10:27:37;100684.09;;;12.42;63.20
79131;BME280;72396;45.194;9.142;2024-03-06T10:30:03;100670.88;;;12.42;64.04
79131;BME280;72396;45.194;9.142;2024-03-06T10:32:32;100668.03;;;12.46;64.31
79131;BME280;72396;45.194;9.142;2024-03-06T10:34:57;100671.56;;;12.47;64.07
79131;BME280;72396;45.194;9.142;2024-03-06T10:37:24;100664.59;;;12.44;64.37
79131;BME280;72396;45.194;9.142;2024-03-06T10:39:51;100665.94;;;12.55;64.32
79131;BME280;72396;45.194;9.142;2024-03-06T10:42:20;100659.59;;;12.59;63.76
79131;BME280;72396;45.194;9.142;2024-03-06T10:44:52;100655.84;;;12.64;63.77
79131;BME280;72396;45.194;9.142;2024-03-06T10:47:19;100658.94;;;12.74;63.68
79131;BME280;72396;45.194;9.142;2024-03-06T10:49:45;100660.59;;;12.77;63.98
79131;BME280;72396;45.194;9.142;2024-03-06T10:52:11;100653.56;;;12.76;63.69
79131;BME280;72396;45.194;9.142;2024-03-06T10:54:37;100664.41;;;12.70;63.59
79131;BME280;72396;45.194;9.142;2024-03-06T10:57:08;100673.09;;;12.73;63.59
79131;BME280;72396;45.194;9.142;2024-03-06T10:59:35;100670.81;;;12.64;62.85
79131;BME280;72396;45.194;9.142;2024-03-06T11:02:00;100678.25;;;12.76;62.76
79131;BME280;72396;45.194;9.142;2024-03-06T11:04:27;100680.69;;;12.81;62.39
79131;BME280;72396;45.194;9.142;2024-03-06T11:07:02;100675.47;;;12.59;62.40
79131;BME280;72396;45.194;9.142;2024-03-06T11:09:35;100685.13;;;12.60;63.03
79131;BME280;72396;45.194;9.142;2024-03-06T11:12:01;100694.63;;;12.64;63.09
79131;BME280;72396;45.194;9.142;2024-03-06T11:14:27;100654.38;;;12.14;62.83
79131;BME280;72396;45.194;9.142;2024-03-06T11:19:26;100689.22;;;12.24;63.08
79131;BME280;72396;45.194;9.142;2024-03-06T11:21:52;100693.28;;;12.33;63.12
79131;BME280;72396;45.194;9.142;2024-03-06T11:27:09;100697.84;;;12.07;63.76
79131;BME280;72396;45.194;9.142;2024-03-06T11:32:36;100694.31;;;12.06;63.52
79131;BME280;72396;45.194;9.142;2024-03-06T11:35:02;100696.00;;;11.85;64.21
79131;BME280;72396;45.194;9.142;2024-03-06T11:37:29;100693.94;;;11.93;64.35
79131;BME280;72396;45.194;9.142;2024-03-06T11:39:59;100697.91;;;12.28;64.02
79131;BME280;72396;45.194;9.142;2024-03-06T11:42:35;100694.69;;;11.97;64.28
79131;BME280;72396;45.194;9.142;2024-03-06T11:45:16;100702.41;;;11.79;64.41
79131;BME280;72396;45.194;9.142;2024-03-06T11:50:24;100704.69;;;12.13;64.00
79131;BME280;72396;45.194;9.142;2024-03-06T11:52:49;100688.25;;;12.27;63.23
79131;BME280;72396;45.194;9.142;2024-03-06T11:55:16;100707.09;;;11.95;64.35
79131;BME280;72396;45.194;9.142;2024-03-06T11:57:41;100692.44;;;12.10;63.72
79131;BME280;72396;45.194;9.142;2024-03-06T12:00:08;100703.75;;;12.36;64.02
79131;BME280;72396;45.194;9.142;2024-03-06T12:02:36;100690.50;;;11.91;64.48
79131;BME280;72396;45.194;9.142;2024-03-06T12:05:02;100686.22;;;12.33;64.40
79131;BME280;72396;45.194;9.142;2024-03-06T12:07:28;100683.53;;;12.56;63.47
79131;BME280;72396;45.194;9.142;2024-03-06T12:09:53;100681.03;;;12.73;63.29
79131;BME280;72396;45.194;9.142;2024-03-06T12:12:19;100673.84;;;12.77;62.67
79131;BME280;72396;45.194;9.142;2024-03-06T12:14:56;100671.09;;;12.78;62.80
79131;BME280;72396;45.194;9.142;2024-03-06T12:17:23;100663.31;;;12.75;62.35
79131;BME280;72396;45.194;9.142;2024-03-06T12:19:49;100657.09;;;12.76;62.21
79131;BME280;72396;45.194;9.142;2024-03-06T12:22:14;100661.69;;;12.92;62.11
79131;BME280;72396;45.194;9.142;2024-03-06T12:24:40;100665.53;;;13.05;62.04
79131;BME280;72396;45.194;9.142;2024-03-06T12:27:07;100658.53;;;13.04;62.01
79131;BME280;72396;45.194;9.142;2024-03-06T12:29:34;100664.59;;;13.06;62.17
79131;BME280;72396;45.194;9.142;2024-03-06T12:32:03;100657.88;;;13.18;62.38
79131;BME280;72396;45.194;9.142;2024-03-06T12:34:30;100641.94;;;13.20;62.69
79131;BME280;72396;45.194;9.142;2024-03-06T12:36:56;100655.69;;;13.28;62.21
79131;BME280;72396;45.194;9.142;2024-03-06T12:39:23;100656.91;;;13.21;61.93
79131;BME280;72396;45.194;9.142;2024-03-06T12:41:52;100648.38;;;13.33;62.44
79131;BME280;72396;45.194;9.142;2024-03-06T12:44:19;100660.88;;;13.50;61.96
79131;BME280;72396;45.194;9.142;2024-03-06T12:46:44;100659.50;;;13.02;62.34
79131;BME280;72396;45.194;9.142;2024-03-06T12:49:10;100659.84;;;13.34;61.40
79131;BME280;72396;45.194;9.142;2024-03-06T12:51:35;100657.50;;;13.47;61.21
79131;BME280;72396;45.194;9.142;2024-03-06T12:54:01;100655.00;;;13.44;59.74
79131;BME280;72396;45.194;9.142;2024-03-06T12:56:26;100670.59;;;13.31;60.48